createdAt,value
2023-01-23T00:01:37.112Z,21.57
2023-01-23T00:04:06.271Z,24.07
2023-01-23T00:06:34.894Z,21.68
2023-01-23T00:09:03.596Z,22.75
2023-01-23T00:11:32.209Z,24.77
2023-01-23T00:14:01.825Z,23.95
2023-01-23T00:16:32.622Z,21.60
2023-01-23T00:19:01.534Z,22.85
2023-01-23T00:21:30.570Z,23.80
2023-01-23T00:23:59.292Z,22.52
2023-01-23T00:26:30.298Z,22.95
2023-01-23T00:28:58.915Z,22.02
2023-01-23T00:31:30.714Z,23.47
2023-01-23T00:34:01.911Z,21.70
2023-01-23T00:36:33.259Z,22.95
2023-01-23T00:39:02.651Z,19.55
2023-01-23T00:41:31.189Z,22.22
2023-01-23T00:43:59.401Z,22.42
2023-01-23T00:46:28.047Z,21.50
2023-01-23T00:48:56.720Z,21.52
2023-01-23T00:51:25.431Z,21.73
2023-01-23T00:53:54.365Z,20.30
2023-01-23T00:56:22.984Z,19.52
2023-01-23T00:58:51.745Z,21.00
2023-01-23T01:01:24.105Z,19.67
2023-01-23T01:03:52.632Z,21.25
2023-01-23T01:06:21.304Z,30.27
2023-01-23T01:08:50.087Z,24.82
2023-01-23T01:11:19.098Z,24.90
2023-01-23T01:13:47.633Z,25.68
2023-01-23T01:16:16.337Z,22.30
2023-01-23T01:18:45.064Z,22.25
2023-01-23T01:21:18.884Z,23.12
2023-01-23T01:23:47.452Z,20.85
2023-01-23T01:26:16.157Z,21.48
2023-01-23T01:28:44.747Z,22.48
2023-01-23T01:31:15.783Z,26.62
2023-01-23T01:33:45.130Z,22.58
2023-01-23T01:36:16.238Z,23.65
2023-01-23T01:38:45.316Z,26.70
2023-01-23T01:41:14.383Z,24.35
2023-01-23T01:43:43.676Z,24.23
2023-01-23T01:46:16.366Z,25.48
2023-01-23T01:48:47.002Z,26.97
2023-01-23T01:51:32.254Z,23.38
2023-01-23T01:54:16.557Z,23.80
2023-01-23T01:56:47.461Z,25.95
2023-01-23T01:59:17.186Z,24.98
2023-01-23T02:01:48.022Z,25.37
2023-01-23T02:04:17.679Z,25.10
2023-01-23T02:06:45.984Z,27.82
2023-01-23T02:09:18.658Z,24.52
2023-01-23T02:11:46.858Z,25.50
2023-01-23T02:14:15.095Z,26.85
2023-01-23T02:16:46.017Z,25.37
2023-01-23T02:19:15.775Z,24.72
2023-01-23T02:21:45.499Z,26.35
2023-01-23T02:24:15.322Z,24.65
2023-01-23T02:26:44.876Z,26.20
2023-01-23T02:29:13.884Z,22.90
2023-01-23T02:31:44.018Z,27.70
2023-01-23T02:34:12.917Z,27.27
2023-01-23T02:36:41.956Z,25.27
2023-01-23T02:39:13.179Z,25.92
2023-01-23T02:41:43.051Z,24.55
2023-01-23T02:44:15.712Z,23.05
2023-01-23T02:46:44.992Z,22.55
2023-01-23T02:49:16.005Z,26.07
2023-01-23T02:51:45.186Z,24.80
2023-01-23T02:54:14.371Z,22.85
2023-01-23T02:56:43.630Z,24.55
2023-01-23T02:59:29.548Z,25.25
2023-01-23T03:01:59.041Z,25.00
2023-01-23T03:04:28.243Z,26.85
2023-01-23T03:06:59.014Z,25.35
2023-01-23T03:09:28.358Z,31.02
2023-01-23T03:11:56.559Z,35.63
2023-01-23T03:14:25.535Z,30.37
2023-01-23T03:16:55.014Z,29.32
2023-01-23T03:19:25.039Z,32.45
2023-01-23T03:21:53.415Z,34.85
2023-01-23T03:24:22.002Z,33.80
2023-01-23T03:26:50.941Z,34.30
2023-01-23T03:29:38.983Z,32.60
2023-01-23T03:32:07.219Z,34.08
2023-01-23T03:34:35.621Z,35.50
2023-01-23T03:37:03.905Z,36.42
2023-01-23T03:39:49.803Z,32.95
2023-01-23T03:42:18.011Z,34.50
2023-01-23T03:44:46.269Z,36.38
2023-01-23T03:47:14.595Z,38.75
2023-01-23T03:49:42.839Z,37.23
2023-01-23T03:52:11.130Z,39.85
2023-01-23T03:54:39.439Z,38.55
2023-01-23T03:57:07.662Z,36.73
2023-01-23T03:59:35.906Z,38.90
2023-01-23T04:02:07.109Z,37.55
2023-01-23T04:04:35.835Z,36.08
2023-01-23T04:07:04.699Z,33.28
2023-01-23T04:09:33.002Z,34.13
2023-01-23T04:12:01.642Z,32.90
2023-01-23T04:14:34.088Z,34.13
2023-01-23T04:19:29.756Z,29.65
2023-01-23T04:21:57.997Z,30.00
2023-01-23T04:24:26.378Z,30.00
2023-01-23T04:26:54.687Z,27.45
2023-01-23T04:29:22.915Z,24.23
2023-01-23T04:31:51.186Z,26.48
2023-01-23T04:34:19.369Z,26.35
2023-01-23T04:36:47.602Z,27.37
2023-01-23T04:39:15.795Z,26.17
2023-01-23T04:41:44.020Z,25.95
2023-01-23T04:44:21.221Z,22.93
2023-01-23T04:46:50.110Z,25.10
2023-01-23T04:49:19.207Z,26.10
2023-01-23T04:51:48.114Z,25.85
2023-01-23T04:54:16.771Z,22.80
2023-01-23T04:56:45.350Z,23.32
2023-01-23T04:59:13.648Z,24.67
2023-01-23T05:01:41.881Z,23.18
2023-01-23T05:04:10.075Z,26.20
2023-01-23T05:06:38.364Z,24.45
2023-01-23T05:09:06.924Z,26.70
2023-01-23T05:11:35.181Z,21.65
2023-01-23T05:14:03.571Z,24.40
2023-01-23T05:16:31.857Z,23.32
2023-01-23T05:19:00.115Z,23.60
2023-01-23T05:21:28.435Z,25.55
2023-01-23T05:23:56.672Z,23.85
2023-01-23T05:26:24.933Z,28.70
2023-01-23T05:28:53.126Z,27.45
2023-01-23T05:31:21.493Z,24.12
2023-01-23T05:33:49.752Z,27.80
2023-01-23T05:36:18.690Z,17.60
2023-01-23T05:38:46.971Z,25.65
2023-01-23T05:41:16.728Z,24.40
2023-01-23T05:43:45.021Z,25.97
2023-01-23T05:46:13.315Z,25.60
2023-01-23T05:48:42.340Z,25.85
2023-01-23T05:51:10.656Z,24.95
2023-01-23T05:53:38.896Z,24.72
2023-01-23T05:56:07.844Z,26.60
2023-01-23T05:58:36.118Z,23.52
2023-01-23T06:01:04.636Z,27.05
2023-01-23T06:03:32.852Z,28.87
2023-01-23T06:06:02.127Z,26.77
2023-01-23T06:08:30.412Z,25.02
2023-01-23T06:10:59.606Z,28.45
2023-01-23T06:13:28.282Z,26.93
2023-01-23T06:15:57.129Z,31.93
2023-01-23T06:18:25.554Z,29.70
2023-01-23T06:20:55.325Z,30.60
2023-01-23T06:23:24.856Z,27.37
2023-01-23T06:25:53.084Z,22.93
2023-01-23T06:28:21.281Z,23.07
2023-01-23T06:30:49.676Z,25.60
2023-01-23T06:33:17.981Z,26.10
2023-01-23T06:35:46.220Z,24.85
2023-01-23T06:38:14.455Z,24.18
2023-01-23T06:40:42.660Z,27.07
2023-01-23T06:43:10.921Z,25.37
2023-01-23T06:45:39.108Z,26.33
2023-01-23T06:48:07.779Z,25.15
2023-01-23T06:50:36.018Z,29.87
2023-01-23T06:53:05.232Z,37.40
2023-01-23T06:55:33.746Z,28.35
2023-01-23T06:58:02.010Z,27.40
2023-01-23T07:00:32.418Z,26.45
2023-01-23T07:03:02.684Z,32.23
2023-01-23T07:05:31.491Z,31.65
2023-01-23T07:07:59.717Z,32.25
2023-01-23T07:10:28.048Z,33.38
2023-01-23T07:12:56.259Z,30.60
2023-01-23T07:15:24.506Z,29.85
2023-01-23T07:17:52.740Z,25.27
2023-01-23T07:20:21.305Z,26.82
2023-01-23T07:22:50.953Z,29.95
2023-01-23T07:25:19.192Z,27.10
2023-01-23T07:27:47.465Z,30.05
2023-01-23T07:30:16.142Z,27.05
2023-01-23T07:32:45.933Z,28.00
2023-01-23T07:35:15.689Z,27.70
2023-01-23T07:37:43.918Z,30.70
2023-01-23T07:40:12.787Z,29.23
2023-01-23T07:42:41.767Z,22.93
2023-01-23T07:45:10.630Z,27.58
2023-01-23T07:47:42.721Z,27.62
2023-01-23T07:50:12.676Z,29.15
2023-01-23T07:52:41.014Z,27.37
2023-01-23T07:55:09.445Z,27.58
2023-01-23T07:57:37.654Z,31.10
2023-01-23T08:00:06.318Z,27.70
2023-01-23T08:02:34.544Z,24.40
2023-01-23T08:05:02.781Z,32.95
2023-01-23T08:07:37.547Z,28.12
2023-01-23T08:10:08.127Z,25.85
2023-01-23T08:12:40.997Z,26.45
2023-01-23T08:15:10.520Z,26.10
2023-01-23T08:17:47.837Z,28.60
2023-01-23T08:20:20.705Z,22.40
2023-01-23T08:22:50.229Z,22.48
2023-01-23T08:25:18.535Z,22.80
2023-01-23T08:27:46.777Z,26.02
2023-01-23T08:30:15.052Z,25.55
2023-01-23T08:32:43.312Z,25.60
2023-01-23T08:35:11.584Z,26.70
2023-01-23T08:37:41.705Z,23.15
2023-01-23T08:40:10.357Z,27.82
2023-01-23T08:42:40.210Z,27.40
2023-01-23T08:45:08.772Z,27.17
2023-01-23T08:47:37.985Z,29.00
2023-01-23T08:50:09.178Z,24.70
2023-01-23T08:52:41.829Z,23.83
2023-01-23T08:55:12.577Z,24.87
2023-01-23T08:57:45.165Z,22.50
2023-01-23T09:02:44.665Z,23.18
2023-01-23T09:05:17.283Z,26.45
2023-01-23T09:07:47.629Z,25.57
2023-01-23T09:10:18.287Z,29.02
2023-01-23T09:12:47.765Z,24.40
2023-01-23T09:15:17.351Z,24.43
2023-01-23T09:17:45.638Z,26.15
2023-01-23T09:20:13.979Z,28.87
2023-01-23T09:22:42.269Z,28.42
2023-01-23T09:25:10.766Z,27.90
2023-01-23T09:27:39.263Z,30.45
2023-01-23T09:30:08.002Z,27.00
2023-01-23T09:32:36.216Z,25.90
2023-01-23T09:35:04.894Z,28.27
2023-01-23T09:37:34.811Z,28.02
2023-01-23T09:40:03.094Z,27.32
2023-01-23T09:42:32.872Z,27.77
2023-01-23T09:45:03.316Z,25.27
2023-01-23T09:47:36.093Z,28.17
2023-01-23T09:50:06.999Z,26.68
2023-01-23T09:52:36.767Z,25.62
2023-01-23T09:55:06.513Z,26.60
2023-01-23T09:57:39.208Z,25.50
2023-01-23T10:00:27.422Z,28.35
2023-01-23T10:02:56.689Z,26.55
2023-01-23T10:05:32.173Z,26.65
2023-01-23T10:08:02.035Z,22.58
2023-01-23T10:10:46.831Z,24.18
2023-01-23T10:13:16.808Z,23.60
2023-01-23T10:16:04.417Z,26.23
2023-01-23T10:18:34.170Z,26.23
2023-01-23T10:21:06.855Z,22.32
2023-01-23T10:23:42.530Z,25.37
2023-01-23T10:26:14.929Z,24.92
2023-01-23T10:28:44.358Z,24.63
2023-01-23T10:31:20.303Z,27.82
2023-01-23T10:33:50.139Z,28.30
2023-01-23T10:36:23.810Z,29.30
2023-01-23T10:38:51.287Z,26.85
2023-01-23T10:41:23.418Z,26.52
2023-01-23T10:43:53.395Z,24.65
2023-01-23T10:46:23.198Z,31.65
2023-01-23T10:48:52.829Z,24.23
2023-01-23T10:51:41.584Z,28.90
2023-01-23T10:54:17.016Z,28.15
2023-01-23T10:56:58.366Z,27.55
2023-01-23T10:59:34.313Z,30.75
2023-01-23T11:02:16.096Z,28.35
2023-01-23T11:04:45.860Z,23.07
2023-01-23T11:07:18.554Z,31.10
2023-01-23T11:09:51.337Z,27.87
2023-01-23T11:12:21.292Z,31.33
2023-01-23T11:14:49.576Z,28.25
2023-01-23T11:17:22.527Z,31.73
2023-01-23T11:19:53.385Z,27.22
2023-01-23T11:22:29.056Z,31.05
2023-01-23T11:24:57.544Z,24.12
2023-01-23T11:27:30.934Z,27.22
2023-01-23T11:30:15.800Z,27.82
2023-01-23T11:32:45.726Z,29.00
2023-01-23T11:35:15.479Z,32.15
2023-01-23T11:37:44.340Z,43.65
2023-01-23T11:40:14.916Z,42.15
2023-01-23T11:42:43.562Z,33.20
2023-01-23T11:45:16.353Z,29.87
2023-01-23T11:47:46.091Z,32.40
2023-01-23T11:50:18.787Z,36.30
2023-01-23T11:52:49.024Z,43.42
2023-01-23T11:55:25.342Z,29.87
2023-01-23T11:58:13.229Z,29.15
2023-01-23T12:00:42.946Z,26.30
2023-01-23T12:03:29.329Z,22.58
2023-01-23T12:08:45.364Z,23.35
2023-01-23T12:11:17.554Z,22.62
2023-01-23T12:13:50.234Z,36.88
2023-01-23T12:16:34.812Z,38.28
2023-01-23T12:19:20.866Z,28.62
2023-01-23T12:21:53.959Z,30.88
2023-01-23T12:24:29.581Z,25.25
2023-01-23T12:26:59.361Z,30.10
2023-01-23T12:29:31.805Z,21.90
2023-01-23T12:32:04.554Z,24.32
2023-01-23T12:34:50.801Z,21.68
2023-01-23T12:37:30.489Z,44.75
2023-01-23T12:40:11.299Z,24.20
2023-01-23T12:42:53.147Z,26.25
2023-01-23T12:45:23.096Z,26.00
2023-01-23T12:47:56.102Z,25.32
2023-01-23T12:50:25.880Z,19.75
2023-01-23T12:52:55.661Z,29.30
2023-01-23T12:55:25.791Z,21.90
2023-01-23T12:57:59.962Z,20.90
2023-01-23T13:00:27.151Z,22.93
2023-01-23T13:03:05.904Z,22.93
2023-01-23T13:05:35.656Z,20.20
2023-01-23T13:08:11.100Z,21.40
2023-01-23T13:10:58.609Z,18.95
2023-01-23T13:13:27.708Z,15.63
2023-01-23T13:16:03.331Z,15.20
2023-01-23T13:18:33.263Z,20.68
2023-01-23T13:21:20.909Z,15.72
2023-01-23T13:23:50.816Z,15.30
2023-01-23T13:26:22.194Z,13.10
2023-01-23T13:28:52.839Z,19.98
2023-01-23T13:31:40.694Z,16.40
2023-01-23T13:34:19.220Z,12.00
2023-01-23T13:36:49.054Z,16.50
2023-01-23T13:39:20.462Z,17.67
2023-01-23T13:41:50.768Z,15.55
2023-01-23T13:44:41.521Z,13.15
2023-01-23T13:47:02.504Z,13.88
2023-01-23T13:49:49.884Z,15.63
2023-01-23T13:52:37.275Z,13.43
2023-01-23T13:55:24.887Z,16.85
2023-01-23T13:57:53.105Z,13.13
2023-01-23T14:00:23.209Z,15.55
2023-01-23T14:03:16.109Z,15.68
2023-01-23T14:08:17.356Z,15.03
2023-01-23T14:13:14.673Z,17.27
2023-01-23T14:16:02.239Z,14.78
2023-01-23T14:18:32.011Z,15.95
2023-01-23T14:21:07.545Z,18.02
2023-01-23T14:23:40.201Z,14.20
2023-01-23T14:26:09.952Z,17.67
2023-01-23T14:28:38.214Z,15.95
2023-01-23T14:31:07.663Z,18.65
2023-01-23T14:33:45.443Z,17.50
2023-01-23T14:36:15.611Z,14.80
2023-01-23T14:38:45.287Z,17.05
2023-01-23T14:41:14.318Z,15.72
2023-01-23T14:43:43.200Z,15.08
2023-01-23T14:46:19.327Z,13.55
2023-01-23T14:48:49.073Z,16.77
2023-01-23T14:51:20.031Z,19.60
2023-01-23T14:53:52.888Z,17.77
2023-01-23T14:56:21.711Z,15.85
2023-01-23T14:58:50.781Z,18.02
2023-01-23T15:01:19.847Z,20.25
2023-01-23T15:03:59.293Z,16.62
2023-01-23T15:06:28.176Z,16.67
2023-01-23T15:08:59.029Z,15.25
2023-01-23T15:11:29.318Z,18.45
2023-01-23T15:14:01.623Z,19.65
2023-01-23T15:16:35.945Z,18.37
2023-01-23T15:19:06.472Z,19.60
2023-01-23T15:21:40.329Z,17.42
2023-01-23T15:24:18.091Z,21.05
2023-01-23T15:27:03.546Z,19.35
2023-01-23T15:29:34.164Z,18.87
2023-01-23T15:32:03.261Z,19.40
2023-01-23T15:34:35.075Z,17.98
2023-01-23T15:37:06.092Z,21.25
2023-01-23T15:39:39.306Z,20.40
2023-01-23T15:42:15.355Z,17.70
2023-01-23T15:44:44.796Z,18.05
2023-01-23T15:47:13.386Z,15.28
2023-01-23T15:49:42.419Z,19.32
2023-01-23T15:52:32.039Z,20.23
2023-01-23T15:55:02.698Z,16.50
2023-01-23T15:57:31.705Z,22.45
2023-01-23T16:00:01.136Z,23.73
2023-01-23T16:02:32.971Z,23.75
2023-01-23T16:05:01.611Z,20.10
2023-01-23T16:07:34.975Z,24.90
2023-01-23T16:10:17.955Z,20.95
2023-01-23T16:12:48.663Z,22.75
2023-01-23T16:15:19.212Z,20.52
2023-01-23T16:17:48.868Z,17.77
2023-01-23T16:20:19.822Z,19.80
2023-01-23T16:22:52.381Z,20.55
2023-01-23T16:25:43.084Z,14.33
2023-01-23T16:28:01.501Z,22.32
2023-01-23T16:30:29.734Z,22.98
2023-01-23T16:33:00.135Z,9.95
2023-01-23T16:35:29.183Z,23.83
2023-01-23T16:37:57.507Z,27.93
2023-01-23T16:40:27.256Z,12.15
2023-01-23T16:42:55.903Z,22.40
2023-01-23T16:45:25.715Z,21.73
2023-01-23T16:47:54.093Z,14.73
2023-01-23T16:50:32.920Z,20.40
2023-01-23T16:53:02.666Z,22.35
2023-01-23T16:55:36.678Z,14.93
2023-01-23T16:58:06.434Z,18.23
2023-01-23T17:00:35.743Z,21.27
2023-01-23T17:03:05.620Z,20.68
2023-01-23T17:05:33.901Z,22.62
2023-01-23T17:08:03.060Z,23.95
2023-01-23T17:10:45.344Z,25.90
2023-01-23T17:13:01.396Z,24.72
2023-01-23T17:15:30.582Z,23.27
2023-01-23T17:18:00.450Z,18.17
2023-01-23T17:20:28.927Z,23.75
2023-01-23T17:22:57.265Z,21.35
2023-01-23T17:25:26.733Z,22.40
2023-01-23T17:28:11.121Z,22.82
2023-01-23T17:30:25.884Z,28.07
2023-01-23T17:32:58.129Z,24.27
2023-01-23T17:35:28.110Z,28.02
2023-01-23T17:37:59.605Z,24.90
2023-01-23T17:40:28.361Z,27.52
2023-01-23T17:42:56.572Z,21.35
2023-01-23T17:45:25.085Z,23.35
2023-01-23T17:47:54.966Z,25.17
2023-01-23T17:50:24.436Z,29.80
2023-01-23T17:52:53.202Z,21.87
2023-01-23T17:55:22.755Z,13.93
2023-01-23T17:57:51.033Z,21.77
2023-01-23T18:00:20.389Z,20.23
2023-01-23T18:02:55.878Z,21.00
2023-01-23T18:05:24.655Z,28.40
2023-01-23T18:07:54.466Z,23.02
2023-01-23T18:10:24.814Z,17.45
2023-01-23T18:12:56.235Z,20.88
2023-01-23T18:15:27.740Z,22.50
2023-01-23T18:17:57.453Z,22.00
2023-01-23T18:20:25.988Z,19.17
2023-01-23T18:22:54.379Z,20.00
2023-01-23T18:25:24.114Z,16.00
2023-01-23T18:27:56.228Z,19.10
2023-01-23T18:30:38.256Z,20.30
2023-01-23T18:33:25.530Z,20.45
2023-01-23T18:36:04.233Z,14.87
2023-01-23T18:38:39.685Z,20.00
2023-01-23T18:41:15.503Z,17.37
2023-01-23T18:43:45.067Z,19.15
2023-01-23T18:46:14.870Z,19.48
2023-01-23T18:48:44.693Z,16.27
2023-01-23T18:51:14.514Z,18.42
2023-01-23T18:53:44.359Z,21.17
2023-01-23T18:56:30.428Z,17.90
2023-01-23T18:59:11.666Z,17.05
2023-01-23T19:01:37.969Z,18.70
2023-01-23T19:04:09.168Z,22.00
2023-01-23T19:06:38.059Z,23.05
2023-01-23T19:09:06.442Z,18.70
2023-01-23T19:11:39.138Z,17.57
2023-01-23T19:14:09.000Z,16.02
2023-01-23T19:16:38.757Z,16.95
2023-01-23T19:19:19.666Z,16.35
2023-01-23T19:21:47.589Z,17.23
2023-01-23T19:24:17.358Z,17.87
2023-01-23T19:26:45.737Z,19.25
2023-01-23T19:29:22.022Z,15.35
2023-01-23T19:31:52.561Z,13.65
2023-01-23T19:34:15.042Z,12.63
2023-01-23T19:36:43.274Z,15.75
2023-01-23T19:39:11.596Z,14.55
2023-01-23T19:41:41.377Z,13.80
2023-01-23T19:44:17.024Z,15.48
2023-01-23T19:46:46.401Z,15.58
2023-01-23T19:49:15.250Z,14.25
2023-01-23T19:51:43.757Z,14.93
2023-01-23T19:54:13.123Z,13.72
2023-01-23T19:56:42.185Z,16.12
2023-01-23T19:59:13.545Z,15.45
2023-01-23T20:01:45.229Z,14.85
2023-01-23T20:04:15.698Z,16.27
2023-01-23T20:06:45.465Z,14.68
2023-01-23T20:09:15.444Z,16.35
2023-01-23T20:11:44.255Z,15.15
2023-01-23T20:14:12.669Z,20.95
2023-01-23T20:16:42.795Z,16.00
2023-01-23T20:19:18.465Z,15.32
2023-01-23T20:21:48.517Z,16.67
2023-01-23T20:24:16.729Z,17.95
2023-01-23T20:26:46.107Z,18.35
2023-01-23T20:29:14.338Z,16.70
2023-01-23T20:31:42.647Z,18.32
2023-01-23T20:34:10.900Z,19.90
2023-01-23T20:36:39.099Z,20.45
2023-01-23T20:39:07.329Z,18.87
2023-01-23T20:41:35.671Z,17.62
2023-01-23T20:44:03.901Z,16.10
2023-01-23T20:46:32.218Z,20.92
2023-01-23T20:49:01.479Z,17.37
2023-01-23T20:51:30.210Z,18.48
2023-01-23T20:53:58.602Z,16.40
2023-01-23T20:56:29.810Z,19.40
2023-01-23T20:59:15.663Z,18.90
2023-01-23T21:02:02.471Z,20.77
2023-01-23T21:04:31.972Z,23.70
2023-01-23T21:07:00.353Z,19.77
2023-01-23T21:09:28.569Z,20.85
2023-01-23T21:11:56.899Z,19.98
2023-01-23T21:14:25.313Z,21.12
2023-01-23T21:16:53.555Z,24.00
2023-01-23T21:19:21.843Z,22.10
2023-01-23T21:21:50.365Z,18.48
2023-01-23T21:24:18.633Z,18.65
2023-01-23T21:26:47.023Z,21.97
2023-01-23T21:29:15.229Z,20.88
2023-01-23T21:31:43.548Z,19.12
2023-01-23T21:34:13.239Z,21.40
2023-01-23T21:36:42.047Z,16.90
2023-01-23T21:39:11.857Z,18.42
2023-01-23T21:41:40.651Z,15.78
2023-01-23T21:44:10.071Z,15.80
2023-01-23T21:46:38.431Z,18.10
2023-01-23T21:49:06.826Z,14.95
2023-01-23T21:51:35.131Z,17.20
2023-01-23T21:54:03.495Z,15.13
2023-01-23T21:56:32.086Z,13.95
2023-01-23T21:59:00.422Z,13.90
2023-01-23T22:01:39.446Z,14.93
2023-01-23T22:04:09.618Z,12.95
2023-01-23T22:06:38.764Z,15.30
2023-01-23T22:09:07.328Z,13.13
2023-01-23T22:11:35.838Z,11.10
2023-01-23T22:14:04.405Z,15.63
2023-01-23T22:16:47.521Z,15.25
2023-01-23T22:19:03.153Z,14.35
2023-01-23T22:21:31.521Z,12.60
2023-01-23T22:23:59.811Z,13.30
2023-01-23T22:26:28.085Z,10.63
2023-01-23T22:28:56.298Z,13.48
2023-01-23T22:31:24.623Z,12.07
2023-01-23T22:33:52.882Z,14.80
2023-01-23T22:36:21.143Z,17.65
2023-01-23T22:38:52.621Z,14.98
2023-01-23T22:41:21.346Z,15.28
2023-01-23T22:43:54.084Z,13.88
2023-01-23T22:46:22.928Z,14.93
2023-01-23T22:48:51.515Z,13.45
2023-01-23T22:51:23.628Z,15.50
2023-01-23T22:53:51.557Z,14.53
2023-01-23T22:56:19.881Z,16.60
2023-01-23T22:58:48.635Z,15.95
2023-01-23T23:01:18.785Z,46.30
2023-01-23T23:03:47.359Z,23.65
2023-01-23T23:06:16.722Z,14.98
2023-01-23T23:08:47.514Z,12.80
2023-01-23T23:11:19.578Z,12.88
2023-01-23T23:16:18.513Z,14.68
2023-01-23T23:18:47.783Z,15.45
2023-01-23T23:21:17.874Z,15.05
2023-01-23T23:23:46.654Z,16.42
2023-01-23T23:26:15.563Z,14.93
2023-01-23T23:28:43.867Z,15.93
2023-01-23T23:31:12.229Z,15.72
2023-01-23T23:33:40.420Z,15.53
2023-01-23T23:36:09.000Z,15.28
2023-01-23T23:38:37.301Z,16.85
2023-01-23T23:41:06.495Z,16.20
2023-01-23T23:43:35.175Z,16.10
2023-01-23T23:46:05.278Z,15.58
2023-01-23T23:48:33.990Z,20.77
2023-01-23T23:51:03.301Z,15.48
2023-01-23T23:53:31.609Z,15.90
2023-01-23T23:55:59.827Z,17.12
2023-01-23T23:58:28.089Z,19.32
